Temp: 12.1°C   Baro: 993.3mb
  Wind: 4.9mph   Dir: SSE (156°)
  Rain: 0.6mm (0.0mm/hr)
  Solar: 0W/m2  Hum: 74%
 
Bath Spa Weather Station Historical Data
Daily Summary for July 10, 2020 Units:  English    Metric   Both
Daily Weekly Monthly Yearly Custom
  High: Low: Average:
Temperature: 63.8 °F 52.2 °F 57.9 °F
Dew Point: 53.6 °F 46.1 °F 49.6 °F
Humidity: 92% 57.4% 75%
Wind Speed: 9.4mph 0mph 3.3mph
Wind Gust: 17mph - -
Wind- - WNW
Pressure: 30.25 in 29.95 in -
Precipitation: 0.01 in    
Historical Graphs
 
 
Tabular Data for July 10, 2020
Time Temperature Dew Point Pressure Wind Wind Speed Wind Gust Humidity Rainfall Rate (Hourly) solar
00:04 56.1 °F 53.6 °F 29.95 in NNW 2.7 mph 8 mph 91% 0.00 in 0 W/m2
00:09 56.1 °F 53.6 °F 29.95 in North 3.2 mph 8 mph 91% 0.00 in 0 W/m2
00:14 56 °F 53.5 °F 29.95 in NNW 3.8 mph 8 mph 91% 0.00 in 0 W/m2
00:19 55.9 °F 53.4 °F 29.95 in NNW 3.3 mph 9 mph 91% 0.00 in 0 W/m2
00:24 56 °F 53.5 °F 29.95 in NNW 2.8 mph 5 mph 91% 0.00 in 0 W/m2
00:29 56 °F 53.5 °F 29.96 in NW 2.1 mph 6 mph 91% 0.00 in 0 W/m2
00:33 56.1 °F 53.6 °F 29.96 in NNW 2.2 mph 6 mph 91% 0.00 in 0 W/m2
00:39 56.1 °F 53.6 °F 29.96 in NNW 1.6 mph 4 mph 91% 0.00 in 0 W/m2
00:42 56.1 °F 53.6 °F 29.96 in NW 3.6 mph 7 mph 91% 0.00 in 0 W/m2
00:49 56.1 °F 53.6 °F 29.96 in NW 4 mph 8 mph 91% 0.00 in 0 W/m2
00:54 56.1 °F 53.6 °F 29.96 in NW 2.8 mph 5 mph 91% 0.00 in 0 W/m2
00:59 56.1 °F 53.6 °F 29.96 in NW 3 mph 6 mph 91% 0.00 in 0 W/m2
01:04 55.9 °F 53.4 °F 29.96 in NNW 2.7 mph 7 mph 91% 0.00 in 0 W/m2
01:09 55.9 °F 53.4 °F 29.96 in North 2 mph 6 mph 91% 0.00 in 0 W/m2
01:14 55.9 °F 53.4 °F 29.96 in NNW 1.9 mph 10 mph 91% 0.00 in 0 W/m2
01:19 55.9 °F 53.4 °F 29.96 in NNW 4.4 mph 10 mph 91% 0.00 in 0 W/m2
01:24 55.9 °F 53.4 °F 29.96 in NNW 2.8 mph 6 mph 91% 0.00 in 0 W/m2
01:29 55.9 °F 53.4 °F 29.96 in North 1.4 mph 4 mph 91% 0.00 in 0 W/m2
01:33 55.9 °F 53.4 °F 29.97 in North 2.2 mph 4 mph 91% 0.00 in 0 W/m2
01:39 55.9 °F 53.4 °F 29.97 in North 0.9 mph 4 mph 91% 0.00 in 0 W/m2
01:44 55.8 °F 53.2 °F 29.97 in North 2.8 mph 5 mph 91% 0.00 in 0 W/m2
01:49 55.8 °F 53.2 °F 29.97 in North 1.2 mph 6 mph 91% 0.00 in 0 W/m2
01:54 55.8 °F 53.2 °F 29.97 in NNE 1.3 mph 6 mph 91% 0.00 in 0 W/m2
01:59 55.6 °F 53.1 °F 29.97 in NNW 2.5 mph 7 mph 91% 0.00 in 0 W/m2
02:04 55.6 °F 53.1 °F 29.97 in NW 2 mph 7 mph 91% 0.00 in 0 W/m2
02:09 55.6 °F 53.1 °F 29.97 in NW 3.2 mph 8 mph 91% 0.00 in 0 W/m2
02:14 55.6 °F 53.1 °F 29.97 in North 2.3 mph 5 mph 91% 0.00 in 0 W/m2
02:19 55.6 °F 53.1 °F 29.97 in NNW 2.5 mph 4 mph 91% 0.00 in 0 W/m2
02:24 55.5 °F 53 °F 29.97 in NNW 3.6 mph 6 mph 91% 0.00 in 0 W/m2
02:29 55.5 °F 53 °F 29.97 in NNW 3.8 mph 8 mph 91% 0.00 in 0 W/m2
02:34 55.5 °F 53 °F 29.97 in NNW 1.7 mph 7 mph 91% 0.00 in 0 W/m2
02:39 55.4 °F 52.9 °F 29.97 in NW 2 mph 4 mph 91% 0.00 in 0 W/m2
02:44 55.5 °F 53 °F 29.97 in NNW 2 mph 5 mph 91% 0.00 in 0 W/m2
02:49 55.4 °F 52.9 °F 29.97 in NNW 3.2 mph 6 mph 91% 0.00 in 0 W/m2
02:54 55.3 °F 52.8 °F 29.97 in NNW 2.5 mph 5 mph 91% 0.00 in 0 W/m2
02:59 55.3 °F 52.8 °F 29.97 in NNW 1.6 mph 5 mph 91% 0.00 in 0 W/m2
03:04 55.2 °F 52.7 °F 29.97 in NNW 1.8 mph 5 mph 91% 0.00 in 0 W/m2
03:09 55.2 °F 52.7 °F 29.97 in NNW 1.4 mph 5 mph 91% 0.00 in 0 W/m2
03:14 55 °F 52.5 °F 29.97 in NNW 0.6 mph 5 mph 91% 0.00 in 0 W/m2
03:19 54.9 °F 52.3 °F 29.98 in NNW 1.3 mph 4 mph 91% 0.00 in 0 W/m2
03:24 54.7 °F 52.2 °F 29.98 in NNW 1.2 mph 3 mph 91% 0.00 in 0 W/m2
03:29 54.4 °F 51.9 °F 29.98 in NW 2.8 mph 6 mph 91% 0.00 in 0 W/m2
03:34 54.2 °F 51.7 °F 29.98 in WNW 1.3 mph 6 mph 91% 0.00 in 0 W/m2
03:39 54.1 °F 51.6 °F 29.98 in WNW 0.8 mph 4 mph 91% 0.00 in 0 W/m2
03:44 54.1 °F 51.6 °F 29.98 in WNW 0.4 mph 2 mph 91% 0.00 in 0 W/m2
03:49 54 °F 51.4 °F 29.98 in WNW 0.4 mph 2 mph 91% 0.00 in 0 W/m2
03:54 54 °F 51.4 °F 29.98 in WNW 0.2 mph 3 mph 91% 0.00 in 0 W/m2
03:59 54 °F 51.4 °F 29.98 in Calm     91% 0.00 in 0 W/m2
04:04 53.8 °F 51.3 °F 29.98 in Calm     91% 0.00 in 0 W/m2
04:09 53.8 °F 51.3 °F 29.98 in Calm     91% 0.00 in 0 W/m2
04:14 53.6 °F 51.1 °F 29.98 in Calm     91% 0.00 in 0 W/m2
04:19 53.4 °F 50.9 °F 29.98 in Calm     91% 0.00 in 0 W/m2
04:24 53.2 °F 50.7 °F 29.99 in Calm     91% 0.00 in 0 W/m2
04:29 53.1 °F 50.5 °F 29.99 in NW 2.4 mph 5 mph 91% 0.00 in 0 W/m2
04:34 53.3 °F 50.9 °F 29.99 in NNW 2.6 mph 5 mph 91.4% 0.00 in 0 W/m2
04:39 53.4 °F 51.1 °F 29.99 in NNW 2.2 mph 8 mph 92% 0.00 in 0 W/m2
04:44 53.6 °F 51.3 °F 29.99 in NW 2.6 mph 8 mph 92% 0.00 in 0 W/m2
04:49 53.6 °F 51.3 °F 29.99 in NW 2.8 mph 5 mph 92% 0.00 in 0 W/m2
04:54 53.8 °F 51.4 °F 30.00 in NW 3.6 mph 6 mph 92% 0.00 in 0 W/m2
04:58 53.8 °F 51.4 °F 29.99 in NNW 3.5 mph 6 mph 92% 0.00 in 0 W/m2
05:04 53.6 °F 51.3 °F 29.99 in NNW 2.6 mph 5 mph 92% 0.00 in 0 W/m2
05:09 53.6 °F 51.3 °F 29.99 in NNW 1.9 mph 6 mph 92% 0.00 in 5 W/m2
05:14 53.4 °F 51.1 °F 30.00 in NNW 0.6 mph 3 mph 92% 0.00 in 5 W/m2
05:19 53.4 °F 51.1 °F 30.00 in NNW 1.1 mph 3 mph 92% 0.00 in 9 W/m2
05:24 53.2 °F 50.7 °F 30.00 in NNW 2.2 mph 3 mph 91% 0.00 in 9 W/m2
05:29 53.1 °F 50.6 °F 30.01 in NNW 2.4 mph 3 mph 91.4% 0.00 in 12 W/m2
05:34 53.1 °F 50.7 °F 30.01 in Calm   3 mph 92% 0.00 in 14 W/m2
05:39 53.1 °F 50.7 °F 30.01 in Calm     92% 0.00 in 18 W/m2
05:44 52.9 °F 50.5 °F 30.01 in Calm     92% 0.00 in 19 W/m2
05:49 52.8 °F 50.5 °F 30.01 in Calm     92% 0.00 in 21 W/m2
05:54 52.6 °F 50.3 °F 30.02 in NNW 0.4 mph 2 mph 92% 0.00 in 26 W/m2
05:59 52.4 °F 50.1 °F 30.02 in Calm   1 mph 92% 0.00 in 33 W/m2
06:04 52.3 °F 50 °F 30.01 in NNW 0.8 mph 3 mph 92% 0.00 in 40 W/m2
06:09 52.3 °F 50 °F 30.02 in Calm     92% 0.00 in 47 W/m2
06:14 52.3 °F 50 °F 30.02 in NNW 0.7 mph 2 mph 92% 0.00 in 46 W/m2
06:19 52.3 °F 50 °F 30.02 in NNW 0.8 mph 2 mph 92% 0.00 in 49 W/m2
06:24 52.2 °F 49.8 °F 30.02 in NNW 0.8 mph 2 mph 92% 0.00 in 63 W/m2
06:29 52.2 °F 49.9 °F 30.02 in NW 1.2 mph 4 mph 92% 0.00 in 83 W/m2
06:34 52.3 °F 49.9 °F 30.03 in WNW 3.9 mph 7 mph 91.4% 0.00 in 84 W/m2
06:39 52.3 °F 49.8 °F 30.03 in West 3.7 mph 6 mph 91% 0.00 in 113 W/m2
06:44 52.5 °F 50 °F 30.03 in WNW 1.8 mph 5 mph 91% 0.00 in 172 W/m2
06:49 52.5 °F 49.8 °F 30.03 in NW 1.9 mph 4 mph 90.6% 0.00 in 181 W/m2
06:54 53 °F 50.1 °F 30.03 in WNW 1.6 mph 6 mph 90% 0.00 in 195 W/m2
06:59 53.3 °F 50.1 °F 30.04 in NW 3.2 mph 7 mph 89% 0.00 in 221 W/m2
07:04 53.4 °F 49.8 °F 30.04 in NW 3.6 mph 8 mph 87.4% 0.00 in 225 W/m2
07:09 53.8 °F 49.6 °F 30.04 in NNW 2.8 mph 6 mph 86% 0.00 in 190 W/m2
07:14 53.8 °F 49.3 °F 30.04 in NW 3.2 mph 7 mph 84.5% 0.00 in 125 W/m2
07:19 53.6 °F 48.7 °F 30.04 in NW 3.2 mph 5 mph 83.2% 0.00 in 218 W/m2
07:24 53.8 °F 48.4 °F 30.04 in NW 2 mph 5 mph 82% 0.00 in 174 W/m2
07:29 53.9 °F 48.5 °F 30.04 in NW 2.4 mph 5 mph 82% 0.00 in 241 W/m2
07:34 54 °F 48.2 °F 30.04 in NNW 2.9 mph 5 mph 81% 0.00 in 202 W/m2
07:39 54.1 °F 48.1 °F 30.04 in NW 5.6 mph 9 mph 80.2% 0.00 in 181 W/m2
07:44 54.3 °F 48 °F 30.05 in NW 2.6 mph 6 mph 79.2% 0.00 in 174 W/m2
07:49 54.5 °F 48.1 °F 30.05 in WNW 2 mph 7 mph 78.8% 0.00 in 149 W/m2
07:54 54.5 °F 47.7 °F 30.05 in NW 4.4 mph 11 mph 77.6% 0.00 in 156 W/m2
07:59 54.3 °F 46.9 °F 30.05 in NW 2.8 mph 9 mph 76% 0.00 in 167 W/m2
08:04 54.5 °F 47 °F 30.05 in NW 3.9 mph 10 mph 75.8% 0.00 in 162 W/m2
08:09 54.3 °F 46.6 °F 30.06 in NNW 4.4 mph 9 mph 75% 0.00 in 199 W/m2
08:14 54.5 °F 46.7 °F 30.06 in NNW 3.7 mph 7 mph 74.8% 0.00 in 485 W/m2
08:19 55 °F 47.1 °F 30.06 in NW 1.6 mph 6 mph 74.8% 0.00 in 339 W/m2
08:24 55.2 °F 47.2 °F 30.06 in NW 2.5 mph 6 mph 74.3% 0.00 in 411 W/m2
08:29 55.4 °F 47.3 °F 30.06 in North 3.7 mph 8 mph 74% 0.00 in 543 W/m2
08:34 55.7 °F 47.2 °F 30.06 in North 4.5 mph 9 mph 73% 0.00 in 241 W/m2
08:39 55.3 °F 46.8 °F 30.06 in NW 4 mph 9 mph 73% 0.00 in 216 W/m2
08:44 55.2 °F 46.8 °F 30.06 in NNW 2.6 mph 7 mph 73% 0.00 in 192 W/m2
08:49 55.3 °F 46.9 °F 30.07 in NW 2.6 mph 5 mph 73.2% 0.00 in 227 W/m2
08:54 55.5 °F 47.2 °F 30.07 in NW 3.4 mph 8 mph 73.6% 0.00 in 295 W/m2
08:59 55.6 °F 47.4 °F 30.07 in NNW 3.3 mph 7 mph 73.8% 0.00 in 378 W/m2
09:04 55.9 °F 47.6 °F 30.07 in NW 4 mph 8 mph 73.4% 0.00 in 371 W/m2
09:09 56.3 °F 48.1 °F 30.08 in NNW 2.9 mph 7 mph 73.8% 0.00 in 306 W/m2
09:14 56.3 °F 47.8 °F 30.08 in NW 4.8 mph 9 mph 73% 0.00 in 390 W/m2
09:19 56.5 °F 48.1 °F 30.08 in NNW 4.5 mph 9 mph 73.4% 0.00 in 355 W/m2
09:24 56.8 °F 48.3 °F 30.08 in NNW 4.8 mph 9 mph 73.4% 0.00 in 329 W/m2
09:29 56.8 °F 48.2 °F 30.08 in NNW 4.5 mph 10 mph 73.2% 0.00 in 281 W/m2
09:34 56.8 °F 48 °F 30.08 in NNW 4.4 mph 9 mph 72.6% 0.00 in 366 W/m2
09:39 56.9 °F 48.3 °F 30.08 in North 2.7 mph 8 mph 73% 0.00 in 302 W/m2
09:44 57 °F 48.4 °F 30.08 in North 4.1 mph 9 mph 73% 0.00 in 251 W/m2
09:49 57.3 °F 48.6 °F 30.08 in NW 2.1 mph 5 mph 73% 0.00 in 251 W/m2
09:54 57.6 °F 49.3 °F 30.08 in WNW 4.3 mph 9 mph 73.8% 0.00 in 267 W/m2
09:59 57.2 °F 47.9 °F 30.08 in North 3.8 mph 9 mph 71.2% 0.00 in 288 W/m2
10:04 57.5 °F 48.2 °F 30.09 in NNW 4 mph 9 mph 71% 0.00 in 260 W/m2
10:09 57.5 °F 47.8 °F 30.09 in North 5 mph 9 mph 70% 0.00 in 279 W/m2
10:14 57.5 °F 47.8 °F 30.09 in NNE 4.5 mph 10 mph 70% 0.00 in 316 W/m2
10:19 57.6 °F 47.1 °F 30.09 in North 6.1 mph 10 mph 67.8% 0.01 in 297 W/m2
10:24 57.5 °F 46.7 °F 30.09 in NNW 4.5 mph 8 mph 67% 0.01 in 306 W/m2
10:29 57.6 °F 47 °F 30.09 in NNW 2.5 mph 7 mph 67.5% 0.01 in 297 W/m2
10:34 58.1 °F 47.5 °F 30.09 in NNE 3.8 mph 7 mph 67.8% 0.01 in 339 W/m2
10:39 58.3 °F 47.9 °F 30.09 in NNW 3.5 mph 8 mph 68.2% 0.01 in 320 W/m2
10:44 58 °F 48.7 °F 30.09 in NW 3.3 mph 9 mph 71.2% 0.01 in 255 W/m2
10:49 58.1 °F 49 °F 30.10 in NW 7 mph 12 mph 71.8% 0.01 in 244 W/m2
10:54 57.9 °F 48.8 °F 30.10 in NW 4.8 mph 12 mph 71.6% 0.01 in 232 W/m2
10:59 58.1 °F 49.1 °F 30.10 in NW 3.8 mph 9 mph 72% 0.01 in 297 W/m2
11:04 58.2 °F 49 °F 30.10 in NNW 4.7 mph 9 mph 71.6% 0.01 in 352 W/m2
11:09 58.3 °F 49.1 °F 30.10 in NNW 3.1 mph 9 mph 71.4% 0.01 in 302 W/m2
11:14 58.8 °F 49.8 °F 30.10 in NNW 3.7 mph 7 mph 72% 0.01 in 339 W/m2
11:19 58.8 °F 49.2 °F 30.10 in North 5.6 mph 14 mph 70.2% 0.01 in 316 W/m2
11:24 58.6 °F 49 °F 30.10 in NNW 4.4 mph 9 mph 70.2% 0.00 in 343 W/m2
11:29 59 °F 49.3 °F 30.10 in NNW 3.2 mph 8 mph 70% 0.00 in 396 W/m2
11:34 59.4 °F 49.5 °F 30.10 in NNW 5.4 mph 11 mph 69.8% 0.00 in 373 W/m2
11:39 59.3 °F 49 °F 30.10 in NNW 6.6 mph 11 mph 68.8% 0.00 in 202 W/m2
11:44 58.9 °F 48.2 °F 30.10 in NNW 5.9 mph 13 mph 67.8% 0.00 in 267 W/m2
11:49 58.9 °F 47.7 °F 30.11 in NW 5.4 mph 10 mph 66.6% 0.00 in 330 W/m2
11:54 59.1 °F 47 °F 30.11 in NNW 8.5 mph 15 mph 64.2% 0.00 in 357 W/m2
11:59 59.3 °F 46.7 °F 30.11 in NNW 8.6 mph 14 mph 63% 0.00 in 452 W/m2
12:04 59.7 °F 47.2 °F 30.11 in NNW 4.3 mph 11 mph 63.2% 0.00 in 580 W/m2
12:09 60.1 °F 46.6 °F 30.11 in NW 9.1 mph 17 mph 61% 0.00 in 612 W/m2
12:14 60.3 °F 46.8 °F 30.11 in NW 8.2 mph 14 mph 61% 0.00 in 701 W/m2
12:19 60.4 °F 46.8 °F 30.11 in NNW 7.6 mph 12 mph 60.6% 0.00 in 687 W/m2
12:23 60.4 °F 47.3 °F 30.11 in NW 5.7 mph 13 mph 62% 0.00 in 214 W/m2
12:29 60 °F 47.5 °F 30.12 in NNW 7 mph 12 mph 63.2% 0.00 in 315 W/m2
12:34 59.8 °F 47.8 °F 30.11 in NNW 5.6 mph 11 mph 64.4% 0.00 in 445 W/m2
12:39 60.1 °F 47.7 °F 30.11 in WNW 4.2 mph 11 mph 63.6% 0.00 in 411 W/m2
12:44 59.9 °F 47.4 °F 30.11 in NW 4.5 mph 12 mph 63.2% 0.00 in 438 W/m2
12:49 60.1 °F 47.9 °F 30.12 in NW 5 mph 9 mph 64.2% 0.00 in 557 W/m2
12:54 60.4 °F 48.1 °F 30.12 in NW 4.4 mph 11 mph 63.8% 0.00 in 645 W/m2
12:59 61 °F 47.4 °F 30.12 in NW 5.7 mph 14 mph 61% 0.00 in 645 W/m2
13:03 60.6 °F 47.1 °F 30.12 in WNW 7.2 mph 14 mph 61% 0.00 in 645 W/m2
13:09 60.6 °F 47.1 °F 30.12 in WNW 6.6 mph 13 mph 61.2% 0.00 in 476 W/m2
13:14 60.8 °F 47.3 °F 30.12 in WNW 5.4 mph 12 mph 61.2% 0.00 in 443 W/m2
13:19 61.2 °F 48.2 °F 30.12 in NW 4.9 mph 13 mph 62.4% 0.00 in 1062 W/m2
13:24 61.7 °F 48.3 °F 30.12 in NW 8 mph 12 mph 61.3% 0.00 in 1071 W/m2
13:29 62.4 °F 47.9 °F 30.12 in NW 5.4 mph 12 mph 59% 0.00 in 1071 W/m2
13:34 62.3 °F 47.8 °F 30.12 in NW 7.2 mph 13 mph 59% 0.00 in 696 W/m2
13:39 62.8 °F 48.4 °F 30.12 in NNW 3.7 mph 13 mph 59.2% 0.00 in 696 W/m2
13:44 62.4 °F 47.9 °F 30.12 in NW 4.7 mph 15 mph 59% 0.00 in 443 W/m2
13:49 61.6 °F 47.7 °F 30.12 in NW 8.2 mph 12 mph 60.2% 0.00 in 399 W/m2
13:54 61.2 °F 48.2 °F 30.12 in NNW 5 mph 12 mph 62.4% 0.00 in 396 W/m2
13:58 61.3 °F 48.6 °F 30.12 in NNW 7.6 mph 14 mph 63% 0.00 in 445 W/m2
14:04 61.4 °F 48.8 °F 30.12 in North 6.4 mph 12 mph 63.2% 0.00 in 1049 W/m2
14:09 62.1 °F 49.1 °F 30.12 in NNW 4.7 mph 14 mph 62.6% 0.00 in 1025 W/m2
14:14 62.3 °F 48.8 °F 30.13 in NNW 9.1 mph 14 mph 61.5% 0.00 in 1074 W/m2
14:19 62.2 °F 49.4 °F 30.13 in WNW 6 mph 14 mph 63.2% 0.00 in 1074 W/m2
14:24 62.8 °F 49.5 °F 30.12 in West 6.6 mph 13 mph 62% 0.00 in 512 W/m2
14:28 62.8 °F 49.2 °F 30.12 in West 5.8 mph 10 mph 61.3% 0.00 in 397 W/m2
14:34 63.2 °F 49.8 °F 30.12 in WNW 9.4 mph 16 mph 61.6% 0.00 in 1046 W/m2
14:39 63.2 °F 48.6 °F 30.13 in WNW 8.2 mph 17 mph 58.6% 0.00 in 1032 W/m2
14:44 62.6 °F 47.7 °F 30.13 in NW 4.8 mph 12 mph 58% 0.00 in 1032 W/m2
14:49 62.4 °F 48.5 °F 30.13 in WNW 5.4 mph 10 mph 60.2% 0.00 in 302 W/m2
14:54 62.4 °F 48.3 °F 30.13 in NW 5.3 mph 11 mph 60% 0.00 in 271 W/m2
14:59 62.3 °F 48.2 °F 30.13 in NW 6.7 mph 13 mph 60% 0.00 in 309 W/m2
15:04 62.2 °F 48.9 °F 30.13 in West 7.5 mph 13 mph 61.6% 0.00 in 276 W/m2
15:09 62.1 °F 49 °F 30.13 in WNW 7 mph 14 mph 62% 0.00 in 327 W/m2
15:14 62.2 °F 48.7 °F 30.13 in WNW 7.5 mph 11 mph 61.4% 0.00 in 348 W/m2
15:19 62.3 °F 48.8 °F 30.13 in WNW 6.1 mph 12 mph 61.2% 0.00 in 352 W/m2
15:24 62.1 °F 48.6 °F 30.13 in WNW 5.2 mph 11 mph 61.4% 0.00 in 304 W/m2
15:29 62.2 °F 48.4 °F 30.14 in NW 5.8 mph 12 mph 60.6% 0.00 in 290 W/m2
15:34 62.2 °F 47.5 °F 30.14 in WNW 6.2 mph 12 mph 58.6% 0.00 in 258 W/m2
15:39 62.4 °F 47.7 °F 30.14 in NW 4.8 mph 9 mph 58.6% 0.00 in 390 W/m2
15:44 62.4 °F 47.6 °F 30.14 in NW 5.4 mph 9 mph 58.2% 0.00 in 376 W/m2
15:49 62.4 °F 47.1 °F 30.14 in NW 7.9 mph 10 mph 57.4% 0.00 in 336 W/m2
15:54 62.4 °F 47.7 °F 30.14 in NW 3.9 mph 11 mph 58.8% 0.00 in 244 W/m2
15:59 62.4 °F 48.4 °F 30.14 in WNW 4.5 mph 9 mph 60% 0.00 in 130 W/m2
16:04 62.2 °F 48.8 °F 30.14 in NW 5.4 mph 11 mph 61.4% 0.00 in 144 W/m2
16:09 61.7 °F 48.6 °F 30.14 in NW 7 mph 12 mph 62.2% 0.00 in 135 W/m2
16:14 61.3 °F 48.6 °F 30.14 in NW 4.3 mph 10 mph 63% 0.00 in 229 W/m2
16:19 61.6 °F 49.3 °F 30.14 in WNW 3.4 mph 9 mph 63.8% 0.00 in 271 W/m2
16:24 62.1 °F 49.7 °F 30.14 in NW 4 mph 10 mph 63.8% 0.00 in 218 W/m2
16:29 61.8 °F 49.1 °F 30.14 in NW 5.8 mph 10 mph 63.2% 0.00 in 174 W/m2
16:33 61.5 °F 48.8 °F 30.14 in WNW 5.8 mph 10 mph 63.3% 0.00 in 178 W/m2
16:39 61.7 °F 49.5 °F 30.14 in NW 2.5 mph 10 mph 64% 0.00 in 283 W/m2
16:44 62.1 °F 49.6 °F 30.14 in NW 4.6 mph 10 mph 63.6% 0.00 in 262 W/m2
16:49 62.1 °F 49.7 °F 30.14 in NNW 3.3 mph 6 mph 63.8% 0.00 in 229 W/m2
16:54 62.1 °F 49.8 °F 30.14 in NNW 4.8 mph 11 mph 64% 0.00 in 214 W/m2
16:59 61.9 °F 49.9 °F 30.14 in NW 3 mph 6 mph 64.8% 0.00 in 178 W/m2
17:04 62.1 °F 50.2 °F 30.14 in NW 1.5 mph 5 mph 65% 0.00 in 167 W/m2
17:09 62.1 °F 50 °F 30.14 in NW 3.6 mph 8 mph 64.6% 0.00 in 149 W/m2
17:14 62.1 °F 50.3 °F 30.14 in NW 2.4 mph 5 mph 65.4% 0.00 in 308 W/m2
17:19 62.2 °F 50.5 °F 30.14 in NW 3.4 mph 8 mph 65.4% 0.00 in 234 W/m2
17:24 62.4 °F 50.1 °F 30.14 in NW 3.2 mph 8 mph 64% 0.00 in 714 W/m2
17:29 63 °F 50.2 °F 30.14 in WNW 4 mph 8 mph 62.8% 0.00 in 698 W/m2
17:34 63.1 °F 50.3 °F 30.14 in WNW 2.5 mph 7 mph 62.8% 0.00 in 167 W/m2
17:39 62.9 °F 50.1 °F 30.14 in NW 3 mph 7 mph 63% 0.00 in 165 W/m2
17:44 62.8 °F 50.1 °F 30.14 in NW 3.3 mph 7 mph 63.2% 0.00 in 199 W/m2
17:49 63 °F 50.1 °F 30.14 in North 1.8 mph 7 mph 62.8% 0.00 in 561 W/m2
17:54 63.8 °F 50.3 °F 30.14 in NNW 4.3 mph 9 mph 61.6% 0.00 in 373 W/m2
17:59 63.5 °F 49.7 °F 30.14 in NW 4.4 mph 9 mph 60.8% 0.00 in 241 W/m2
18:04 63.5 °F 49.5 °F 30.14 in North 5.4 mph 10 mph 60.4% 0.00 in 617 W/m2
18:09 63.7 °F 49.5 °F 30.15 in North 6.7 mph 11 mph 60% 0.00 in 534 W/m2
18:14 63.1 °F 49.4 °F 30.15 in NNW 4.7 mph 8 mph 61% 0.00 in 111 W/m2
18:19 62.6 °F 49.7 °F 30.15 in NNW 3.7 mph 8 mph 62.8% 0.00 in 97 W/m2
18:24 62.2 °F 49.9 °F 30.15 in NNW 4.4 mph 8 mph 63.8% 0.00 in 100 W/m2
18:29 62 °F 49.6 °F 30.15 in NNW 3.4 mph 8 mph 63.8% 0.00 in 86 W/m2
18:34 62.1 °F 50.1 °F 30.15 in NNW 2.8 mph 8 mph 64.6% 0.00 in 399 W/m2
18:44 63.1 °F 49.8 °F 30.16 in NW 4 mph 6 mph 62% 0.00 in 149 W/m2
18:49 62.7 °F 49.7 °F 30.16 in NNW 3.9 mph 11 mph 62.4% 0.00 in 100 W/m2
18:54 62.5 °F 49.7 °F 30.16 in NNW 5.4 mph 9 mph 63% 0.00 in 97 W/m2
18:59 62.1 °F 49.7 °F 30.16 in NNW 5.6 mph 9 mph 63.8% 0.00 in 86 W/m2
19:04 62.1 °F 49.8 °F 30.16 in NNW 4.1 mph 9 mph 64.2% 0.00 in 76 W/m2
19:09 61.9 °F 50 °F 30.17 in NNW 4.2 mph 8 mph 65% 0.00 in 91 W/m2
19:14 61.9 °F 50 °F 30.17 in North 4 mph 6 mph 65% 0.00 in 100 W/m2
19:19 61.8 °F 50.2 °F 30.17 in NNW 3.2 mph 6 mph 65.5% 0.00 in 90 W/m2
19:24 62 °F 50.4 °F 30.17 in North 1.8 mph 6 mph 66% 0.00 in 274 W/m2
19:29 62.4 °F 50.5 °F 30.17 in North 2.4 mph 6 mph 65% 0.00 in 279 W/m2
19:34 63 °F 50.7 °F 30.16 in NNE 4 mph 9 mph 64.2% 0.00 in 287 W/m2
19:39 63 °F 50.7 °F 30.17 in North 3.3 mph 7 mph 64.2% 0.00 in 248 W/m2
19:44 62.8 °F 50.9 °F 30.17 in North 2.1 mph 5 mph 65% 0.00 in 146 W/m2
19:49 63 °F 50.9 °F 30.17 in North 2.4 mph 7 mph 64.8% 0.00 in 190 W/m2
19:54 62.8 °F 50.4 °F 30.17 in North 5.4 mph 11 mph 64% 0.00 in 181 W/m2
19:59 62.4 °F 50 °F 30.17 in North 4.9 mph 9 mph 64% 0.00 in 155 W/m2
20:04 62.4 °F 50.3 °F 30.17 in North 4 mph 9 mph 64.6% 0.00 in 142 W/m2
20:09 62.2 °F 50.4 °F 30.17 in North 4.8 mph 11 mph 65% 0.00 in 42 W/m2
20:14 61.5 °F 49.9 °F 30.18 in North 5.8 mph 11 mph 65.8% 0.00 in 90 W/m2
20:19 61.2 °F 49.8 °F 30.17 in North 4.2 mph 7 mph 66.2% 0.00 in 76 W/m2
20:24 61.2 °F 50.2 °F 30.18 in North 2.9 mph 5 mph 67% 0.00 in 62 W/m2
20:29 61.2 °F 50.5 °F 30.18 in NNW 0.6 mph 4 mph 67.8% 0.00 in 56 W/m2
20:34 61.3 °F 50.6 °F 30.18 in North 2.1 mph 5 mph 68% 0.00 in 44 W/m2
20:39 60.9 °F 50.3 °F 30.18 in NNE 2.7 mph 5 mph 68% 0.00 in 39 W/m2
20:44 60.7 °F 50.1 °F 30.18 in North 2.8 mph 6 mph 68% 0.00 in 30 W/m2
20:49 60.5 °F 50.2 °F 30.18 in NNW 2.7 mph 6 mph 68.8% 0.00 in 23 W/m2
20:54 60.3 °F 50.1 °F 30.18 in North 2.3 mph 6 mph 69% 0.00 in 19 W/m2
20:59 60.2 °F 49.9 °F 30.18 in North 2.1 mph 5 mph 69% 0.00 in 18 W/m2
21:04 59.9 °F 49.8 °F 30.18 in North 1.4 mph 4 mph 69.4% 0.00 in 14 W/m2
21:09 59.5 °F 49.7 °F 30.19 in North 0.6 mph 3 mph 70% 0.00 in 12 W/m2
21:14 59.3 °F 49.8 °F 30.19 in Calm   3 mph 70.6% 0.00 in 11 W/m2
21:19 59 °F 49.6 °F 30.19 in Calm     71% 0.00 in 7 W/m2
21:24 58.6 °F 49.6 °F 30.19 in North 1.8 mph 3 mph 72% 0.00 in 5 W/m2
21:29 58.4 °F 49.6 °F 30.19 in North 1.2 mph 3 mph 72.6% 0.00 in 0 W/m2
21:34 58 °F 49.4 °F 30.19 in Calm   3 mph 73% 0.00 in 0 W/m2
21:39 57.7 °F 49.4 °F 30.20 in North 1.4 mph 4 mph 73.6% 0.00 in 0 W/m2
21:44 57.5 °F 49.2 °F 30.20 in North 0.8 mph 3 mph 74% 0.00 in 0 W/m2
21:49 57.2 °F 48.9 °F 30.20 in North 2.3 mph 3 mph 74% 0.00 in 0 W/m2
21:54 56.9 °F 48.6 °F 30.21 in North 1.2 mph 3 mph 74% 0.00 in 0 W/m2
21:59 56.8 °F 48.5 °F 30.21 in North 1.8 mph 3 mph 74% 0.00 in 0 W/m2
22:04 56.7 °F 48.4 °F 30.21 in North 2.1 mph 3 mph 74% 0.00 in 0 W/m2
22:09 56.4 °F 48.3 °F 30.22 in North 2.2 mph 4 mph 74% 0.00 in 0 W/m2
22:14 56.1 °F 48.2 °F 30.22 in North 2 mph 4 mph 74.5% 0.00 in 0 W/m2
22:19 56 °F 48.3 °F 30.22 in North 3.1 mph 5 mph 75% 0.00 in 0 W/m2
22:24 55.9 °F 48.1 °F 30.22 in North 3.2 mph 5 mph 75% 0.00 in 0 W/m2
22:29 55.7 °F 47.9 °F 30.22 in NNW 2.7 mph 6 mph 75% 0.00 in 0 W/m2
22:34 55.5 °F 47.7 °F 30.22 in NNW 2.7 mph 4 mph 75% 0.00 in 0 W/m2
22:39 55.3 °F 47.7 °F 30.23 in NNW 1.4 mph 4 mph 75.4% 0.00 in 0 W/m2
22:44 55.1 °F 47.8 °F 30.23 in North 0.6 mph 3 mph 76% 0.00 in 0 W/m2
22:49 55 °F 47.7 °F 30.23 in North 2.5 mph 4 mph 76% 0.00 in 0 W/m2
22:54 55 °F 47.7 °F 30.24 in North 3 mph 5 mph 76% 0.00 in 0 W/m2
22:59 55 °F 47.5 °F 30.24 in North 2.8 mph 5 mph 75.6% 0.00 in 0 W/m2
23:04 54.9 °F 47.3 °F 30.24 in North 1.8 mph 4 mph 75.4% 0.00 in 0 W/m2
23:09 54.9 °F 47.4 °F 30.24 in North 0.2 mph 3 mph 75.8% 0.00 in 0 W/m2
23:19 54.5 °F 47.1 °F 30.24 in Calm     76% 0.00 in 0 W/m2
23:24 54.1 °F 46.7 °F 30.24 in Calm     76% 0.00 in 0 W/m2
23:29 53.9 °F 46.5 °F 30.24 in Calm     76% 0.00 in 0 W/m2
23:34 53.8 °F 46.5 °F 30.25 in Calm     76% 0.00 in 0 W/m2
23:39 53.8 °F 46.7 °F 30.25 in Calm     76.8% 0.00 in 0 W/m2
23:44 53.8 °F 46.8 °F 30.25 in Calm     77% 0.00 in 0 W/m2
23:49 53.5 °F 46.5 °F 30.25 in Calm     77% 0.00 in 0 W/m2
23:54 53.4 °F 46.4 °F 30.25 in Calm     77% 0.00 in 0 W/m2
23:59 53.2 °F 46.1 °F 30.25 in Calm     77% 0.00 in 0 W/m2
Bath Spa Weather
Compliments of Weather Underground - 2 mb